Time;durP1;ratioP1;P1;durP2;ratioP2;P2;SDS_P1;SDS_P2;PMS_P1;PMS_P2;Temp;Humidity;BMP_temperature;BMP_pressure;BME280_temperature;BME280_humidity;BME280_pressure;Samples;Min_cycle;Max_cycle;Signal;HPM_P1;HPM_P2
2021/04/13 00:00:30;;;;;;;1.92;1.10;;;2.30;1.00;;;;;;5031858;28;20694;-65
2021/04/13 00:03:01;;;;;;;1.85;1.60;;;2.20;1.00;;;;;;5032277;28;20264;-68
2021/04/13 00:05:33;;;;;;;2.35;2.05;;;2.20;1.00;;;;;;5031506;28;20181;-66
2021/04/13 00:08:06;;;;;;;1.58;1.48;;;2.10;99.90;;;;;;5031554;28;20212;-67
2021/04/13 00:10:37;;;;;;;2.40;2.20;;;2.10;99.90;;;;;;5031961;28;20603;-67
2021/04/13 00:13:05;;;;;;;5.22;2.03;;;2.10;99.90;;;;;;5031684;28;20568;-67
2021/04/13 00:15:35;;;;;;;3.00;1.95;;;2.10;99.90;;;;;;5031788;28;20185;-66
2021/04/13 00:18:04;;;;;;;2.80;2.20;;;2.00;99.90;;;;;;5031221;28;20232;-65
2021/04/13 00:20:38;;;;;;;2.78;2.20;;;2.00;1.00;;;;;;5031466;28;20259;-66
2021/04/13 00:23:07;;;;;;;1.85;1.73;;;1.90;99.90;;;;;;5031502;28;20180;-65
2021/04/13 00:25:37;;;;;;;8.15;2.33;;;1.90;99.90;;;;;;5031700;28;20173;-66
2021/04/13 00:28:06;;;;;;;2.70;1.92;;;1.80;1.00;;;;;;5031415;28;20205;-66
2021/04/13 00:30:42;;;;;;;6.13;2.38;;;1.80;1.00;;;;;;5031465;28;20199;-67
2021/04/13 00:33:15;;;;;;;2.30;2.08;;;1.70;1.00;;;;;;5014034;28;20283;-65
2021/04/13 00:35:45;;;;;;;2.45;2.22;;;1.70;1.00;;;;;;5014091;28;20212;-65
2021/04/13 00:38:28;;;;;;;3.60;2.05;;;1.70;1.00;;;;;;5031653;28;20275;-65
2021/04/13 00:41:01;;;;;;;2.22;1.88;;;1.70;1.00;;;;;;5031581;28;20589;-66
2021/04/13 00:43:29;;;;;;;2.92;2.30;;;1.70;1.00;;;;;;5031345;28;20264;-65
2021/04/13 00:45:58;;;;;;;3.63;1.50;;;1.70;1.00;;;;;;5032030;28;20178;-66
2021/04/13 00:48:30;;;;;;;2.05;1.73;;;1.70;1.00;;;;;;5017382;28;20217;-65
2021/04/13 00:51:06;;;;;;;3.38;2.58;;;1.60;1.00;;;;;;5017767;28;20204;-65
2021/04/13 00:53:36;;;;;;;3.00;2.33;;;1.60;1.00;;;;;;5035445;28;20239;-65
2021/04/13 00:56:07;;;;;;;2.20;1.45;;;1.70;1.00;;;;;;5017760;28;20548;-65
2021/04/13 00:58:40;;;;;;;1.75;1.65;;;1.70;1.00;;;;;;5035443;28;20205;-66
2021/04/13 01:01:12;;;;;;;1.58;1.48;;;1.60;1.00;;;;;;5035447;28;20568;-66
2021/04/13 01:03:48;;;;;;;2.42;2.15;;;1.70;1.00;;;;;;5035825;28;20653;-66
2021/04/13 01:06:24;;;;;;;2.75;2.33;;;1.60;1.00;;;;;;5035400;28;20177;-66
2021/04/13 01:09:01;;;;;;;2.10;1.90;;;1.60;1.00;;;;;;5016602;28;20320;-66
2021/04/13 01:11:31;;;;;;;5.70;2.50;;;1.60;1.00;;;;;;5035044;28;20181;-65
2021/04/13 01:14:01;;;;;;;3.40;2.60;;;1.60;3.90;;;;;;5034580;28;20344;-66
2021/04/13 01:16:32;;;;;;;1.90;1.30;;;1.60;1.00;;;;;;5034937;28;20216;-65
2021/04/13 01:19:11;;;;;;;3.25;2.03;;;1.60;1.00;;;;;;5034335;28;20177;-65
2021/04/13 01:21:52;;;;;;;2.53;1.73;;;1.70;1.00;;;;;;5034448;28;20212;-66
2021/04/13 01:24:23;;;;;;;2.00;1.80;;;1.70;1.00;;;;;;5034588;28;20260;-66
2021/04/13 01:26:54;;;;;;;3.70;2.90;;;1.70;1.00;;;;;;5034441;28;20209;-66
2021/04/13 01:29:25;;;;;;;2.50;1.70;;;1.80;1.00;;;;;;5034377;28;20606;-66
2021/04/13 01:31:57;;;;;;;5.25;2.28;;;1.70;1.00;;;;;;5034282;28;20170;-67
2021/04/13 01:34:31;;;;;;;4.45;2.40;;;1.70;1.00;;;;;;5033938;28;20313;-66
2021/04/13 01:37:12;;;;;;;2.83;2.58;;;1.70;1.00;;;;;;5034398;28;20205;-66
2021/04/13 01:39:48;;;;;;;2.25;1.77;;;1.60;1.00;;;;;;5035145;28;20181;-66
2021/04/13 01:42:16;;;;;;;3.38;2.40;;;1.60;1.00;;;;;;5035224;28;20839;-66
2021/04/13 01:44:47;;;;;;;2.42;2.10;;;1.60;12.20;;;;;;5035461;28;20190;-66
2021/04/13 01:47:17;;;;;;;6.28;3.05;;;1.50;14.50;;;;;;5034883;28;20287;-67
2021/04/13 01:49:49;;;;;;;3.15;2.30;;;1.60;25.10;;;;;;5034561;28;20194;-66
2021/04/13 01:52:23;;;;;;;2.25;2.05;;;1.50;81.80;;;;;;5034245;28;20213;-66
2021/04/13 01:54:51;;;;;;;3.20;2.95;;;1.50;59.90;;;;;;5033040;28;20189;-67
2021/04/13 01:57:29;;;;;;;2.70;2.50;;;1.50;95.50;;;;;;5032715;28;20216;-65
2021/04/13 02:00:07;;;;;;;3.08;1.98;;;1.50;99.90;;;;;;5034206;28;20188;-66
2021/04/13 02:02:46;;;;;;;3.85;2.60;;;1.50;99.90;;;;;;5033967;28;20178;-66
2021/04/13 02:05:16;;;;;;;3.38;2.35;;;1.50;99.90;;;;;;5033791;28;20194;-66
2021/04/13 02:07:54;;;;;;;6.55;2.67;;;1.40;99.90;;;;;;5033751;28;20209;-67
2021/04/13 02:10:26;;;;;;;3.65;2.65;;;1.40;99.90;;;;;;5014152;28;20656;-66
2021/04/13 02:12:59;;;;;;;7.00;3.25;;;1.40;99.90;;;;;;5014552;28;20228;-66
2021/04/13 02:15:47;;;;;;;4.95;3.40;;;1.40;99.90;;;;;;4996540;28;20225;-66
2021/04/13 02:18:20;;;;;;;3.75;2.80;;;1.40;99.90;;;;;;5013716;28;20301;-66
2021/04/13 02:20:51;;;;;;;2.90;2.63;;;1.30;99.90;;;;;;5013843;28;20190;-67
2021/04/13 02:23:27;;;;;;;3.42;2.60;;;1.40;99.90;;;;;;5014125;28;20194;-66
2021/04/13 02:25:56;;;;;;;3.95;3.50;;;1.30;99.90;;;;;;4996840;28;20194;-65
2021/04/13 02:28:24;;;;;;;3.65;2.78;;;1.20;99.90;;;;;;5013616;28;20206;-65
2021/04/13 02:30:51;;;;;;;3.40;2.75;;;1.30;99.90;;;;;;5014000;28;20440;-66
2021/04/13 02:33:30;;;;;;;4.13;2.88;;;1.30;99.90;;;;;;5013557;28;20226;-65
2021/04/13 02:36:06;;;;;;;2.97;2.58;;;1.30;99.90;;;;;;4995928;28;20302;-67
2021/04/13 02:38:37;;;;;;;3.17;2.28;;;1.30;99.90;;;;;;5013482;28;20206;-66
2021/04/13 02:41:15;;;;;;;4.93;3.78;;;1.20;99.90;;;;;;5013543;28;20186;-65
2021/04/13 02:43:48;;;;;;;4.88;4.38;;;1.20;99.90;;;;;;5013377;28;20182;-66
2021/04/13 02:46:19;;;;;;;5.43;3.80;;;1.10;99.90;;;;;;5013670;28;20182;-66
2021/04/13 02:48:53;;;;;;;3.28;2.25;;;1.10;99.90;;;;;;5013325;28;20563;-64
2021/04/13 02:51:23;;;;;;;2.53;2.33;;;1.10;99.90;;;;;;5013528;28;20189;-66
2021/04/13 02:53:55;;;;;;;4.63;3.83;;;1.10;99.90;;;;;;5014084;28;20217;-65
2021/04/13 02:56:27;;;;;;;3.80;3.03;;;1.10;99.90;;;;;;4996041;28;20232;-66
2021/04/13 02:59:04;;;;;;;5.00;4.05;;;1.00;99.90;;;;;;5013511;28;20611;-65
2021/04/13 03:01:33;;;;;;;6.35;4.40;;;1.00;99.90;;;;;;5013483;28;20182;-66
2021/04/13 03:04:05;;;;;;;3.60;3.30;;;1.00;99.90;;;;;;5013359;28;20175;-65
2021/04/13 03:06:38;;;;;;;6.30;3.95;;;1.00;99.90;;;;;;5013476;28;20183;-66
2021/04/13 03:09:06;;;;;;;5.00;4.07;;;1.00;99.90;;;;;;4995208;28;20210;-66
2021/04/13 03:11:35;;;;;;;4.90;4.43;;;1.00;99.90;;;;;;5013739;28;20583;-66
2021/04/13 03:14:04;;;;;;;6.13;3.80;;;0.90;99.90;;;;;;4995348;28;20191;-66
2021/04/13 03:16:36;;;;;;;4.30;3.10;;;0.90;99.90;;;;;;5012821;28;20201;-66
2021/04/13 03:19:08;;;;;;;4.15;2.78;;;0.90;99.90;;;;;;5012950;28;20189;-65
2021/04/13 03:21:41;;;;;;;5.55;4.38;;;1.00;99.90;;;;;;5013628;28;20257;-66
2021/04/13 03:24:12;;;;;;;9.10;3.20;;;1.00;99.90;;;;;;5012801;28;20197;-66
2021/04/13 03:26:45;;;;;;;6.03;5.00;;;0.90;99.90;;;;;;5012989;28;20186;-66
2021/04/13 03:29:17;;;;;;;6.30;4.40;;;0.80;99.90;;;;;;5012662;28;20200;-66
2021/04/13 03:31:45;;;;;;;4.28;3.88;;;0.80;99.90;;;;;;5012803;28;20834;-66
2021/04/13 03:34:12;;;;;;;8.10;3.60;;;0.80;99.90;;;;;;5012869;28;20546;-65
2021/04/13 03:36:41;;;;;;;3.97;3.58;;;0.80;99.90;;;;;;5012698;28;20204;-65
2021/04/13 03:39:11;;;;;;;4.28;3.33;;;0.80;99.90;;;;;;5013264;28;20692;-65
2021/04/13 03:41:41;;;;;;;5.10;4.40;;;0.80;99.90;;;;;;5012842;28;20174;-65
2021/04/13 03:44:09;;;;;;;5.38;3.17;;;0.70;99.90;;;;;;5013419;28;20174;-64
2021/04/13 03:46:39;;;;;;;4.30;3.10;;;0.80;99.90;;;;;;5013329;28;20255;-65
2021/04/13 03:49:10;;;;;;;6.25;4.18;;;0.80;99.90;;;;;;5012880;28;20205;-64
2021/04/13 03:51:45;;;;;;;5.38;3.95;;;0.80;99.90;;;;;;5012691;28;20178;-67
2021/04/13 03:54:26;;;;;;;3.90;3.47;;;0.80;99.90;;;;;;5012528;28;20185;-66
2021/04/13 03:56:54;;;;;;;2.92;2.72;;;0.80;99.90;;;;;;5012168;28;20233;-65
2021/04/13 03:59:24;;;;;;;3.50;2.70;;;0.80;99.90;;;;;;5012462;28;20550;-65
2021/04/13 04:01:51;;;;;;;9.25;4.40;;;0.80;99.90;;;;;;5017123;28;20450;-65
2021/04/13 04:04:28;;;;;;;7.22;4.82;;;0.70;99.90;;;;;;5017109;28;20236;-65
2021/04/13 04:07:00;;;;;;;4.93;3.72;;;0.70;99.90;;;;;;5006484;28;20217;-65
2021/04/13 04:09:37;;;;;;;4.90;3.92;;;0.70;99.90;;;;;;5016315;28;20232;-65
2021/04/13 04:12:20;;;;;;;7.15;3.78;;;0.70;99.90;;;;;;5016200;28;20224;-65
2021/04/13 04:15:04;;;;;;;5.05;4.05;;;0.70;99.90;;;;;;5033422;28;20181;-65
2021/04/13 04:17:33;;;;;;;5.80;4.75;;;0.70;99.90;;;;;;5035060;28;20241;-67
2021/04/13 04:20:05;;;;;;;4.70;3.70;;;0.70;99.90;;;;;;5035056;28;20223;-65
2021/04/13 04:22:35;;;;;;;5.13;3.30;;;0.70;99.90;;;;;;5016691;28;20185;-66
2021/04/13 04:25:15;;;;;;;6.30;4.40;;;0.70;99.90;;;;;;5035043;28;20216;-66
2021/04/13 04:27:44;;;;;;;5.40;4.45;;;0.80;99.90;;;;;;5034093;28;20243;-65
2021/04/13 04:30:23;;;;;;;8.00;4.43;;;0.80;99.90;;;;;;5033613;28;20252;-66
2021/04/13 04:32:51;;;;;;;4.80;4.20;;;0.90;99.90;;;;;;5012524;28;20188;-66
2021/04/13 04:35:39;;;;;;;7.28;4.60;;;1.00;99.90;;;;;;5031251;28;20189;-65
2021/04/13 04:38:23;;;;;;;5.55;4.45;;;1.10;99.90;;;;;;5031198;28;20209;-66
2021/04/13 04:40:59;;;;;;;6.82;4.25;;;1.20;99.90;;;;;;5031336;28;20689;-66
2021/04/13 04:43:43;;;;;;;7.00;4.93;;;1.50;99.90;;;;;;5031327;28;20694;-66
2021/04/13 04:46:11;;;;;;;5.70;4.88;;;2.40;99.90;;;;;;5031136;28;20204;-66
2021/04/13 04:48:39;;;;;;;4.78;3.97;;;3.20;1.00;;;;;;5030993;28;20259;-66
2021/04/13 04:51:09;;;;;;;7.03;4.43;;;3.50;1.00;;;;;;5031857;28;20646;-66
2021/04/13 04:53:39;;;;;;;6.75;4.47;;;3.50;99.90;;;;;;5031604;28;20182;-66
2021/04/13 04:56:08;;;;;;;7.53;5.40;;;3.30;99.90;;;;;;5013385;28;20178;-65
2021/04/13 04:58:36;;;;;;;6.63;4.07;;;3.10;99.90;;;;;;5031633;28;20224;-66
2021/04/13 05:01:04;;;;;;;6.18;5.55;;;3.00;1.00;;;;;;5014589;28;20190;-66
2021/04/13 05:03:36;;;;;;;5.60;5.00;;;2.90;1.00;;;;;;5032050;28;20177;-65
2021/04/13 05:06:04;;;;;;;9.75;5.22;;;2.90;37.20;;;;;;5031974;28;20209;-65
2021/04/13 05:08:31;;;;;;;6.70;5.90;;;2.90;1.00;;;;;;5030965;28;20650;-66
2021/04/13 05:10:59;;;;;;;7.22;5.28;;;3.00;1.00;;;;;;5018607;28;20278;-66
2021/04/13 05:13:26;;;;;;;13.30;6.13;;;2.90;1.00;;;;;;5026935;28;20197;-66
2021/04/13 05:15:53;;;;;;;6.28;4.50;;;2.80;37.90;;;;;;5012312;28;20624;-66
2021/04/13 05:18:20;;;;;;;6.18;5.55;;;2.70;99.90;;;;;;5031112;28;20209;-66
2021/04/13 05:20:48;;;;;;;8.10;5.22;;;2.70;99.90;;;;;;5013435;28;20557;-66
2021/04/13 05:23:16;;;;;;;9.07;5.85;;;2.60;1.00;;;;;;5013565;28;20196;-66
2021/04/13 05:25:43;;;;;;;6.78;5.53;;;2.60;1.00;;;;;;5031516;28;20184;-66
2021/04/13 05:28:12;;;;;;;8.13;5.65;;;2.60;99.90;;;;;;5031017;28;20693;-66
2021/04/13 05:30:39;;;;;;;8.55;6.05;;;2.60;1.00;;;;;;5031370;28;20188;-67
2021/04/13 05:33:07;;;;;;;7.95;5.78;;;2.60;6.10;;;;;;5033616;28;20204;-66
2021/04/13 05:35:34;;;;;;;10.63;8.38;;;2.70;1.00;;;;;;5035268;28;20655;-66
2021/04/13 05:38:05;;;;;;;10.10;7.05;;;2.80;1.00;;;;;;5034819;28;20227;-65
2021/04/13 05:40:34;;;;;;;9.73;5.93;;;2.80;1.00;;;;;;5034888;28;20177;-66
2021/04/13 05:43:02;;;;;;;11.77;6.10;;;2.90;99.90;;;;;;5017227;28;20190;-67
2021/04/13 05:45:33;;;;;;;10.45;7.20;;;2.90;99.90;;;;;;5016829;28;20220;-66
2021/04/13 05:48:01;;;;;;;8.88;6.05;;;3.00;99.90;;;;;;5034856;28;20621;-66
2021/04/13 05:50:32;;;;;;;7.82;5.93;;;3.00;99.90;;;;;;5034985;28;20682;-66
2021/04/13 05:53:00;;;;;;;9.38;7.05;;;3.10;99.90;;;;;;5017025;28;20197;-66
2021/04/13 05:55:30;;;;;;;8.73;5.85;;;3.10;99.90;;;;;;5034509;28;20213;-65
2021/04/13 05:58:02;;;;;;;11.73;5.63;;;3.20;99.90;;;;;;5034662;28;20271;-67
2021/04/13 06:00:31;;;;;;;9.68;5.72;;;3.30;99.90;;;;;;5034606;28;20492;-67
2021/04/13 06:03:00;;;;;;;6.63;5.70;;;3.40;99.90;;;;;;5034577;28;20212;-67
2021/04/13 06:05:29;;;;;;;8.32;6.18;;;3.30;99.90;;;;;;5034418;28;20185;-66
2021/04/13 06:07:57;;;;;;;6.97;6.18;;;3.40;99.90;;;;;;5033705;28;20292;-65
2021/04/13 06:10:25;;;;;;;8.35;6.07;;;3.60;99.90;;;;;;5015732;28;20205;-65
2021/04/13 06:12:54;;;;;;;6.28;5.13;;;3.60;99.90;;;;;;5050485;23;20223;-66
2021/04/13 06:15:25;;;;;;;9.70;5.65;;;3.60;99.90;;;;;;5074580;28;20414;-66
2021/04/13 06:17:53;;;;;;;9.30;5.25;;;3.60;99.90;;;;;;5074543;28;20215;-66
2021/04/13 06:20:22;;;;;;;8.38;5.88;;;3.50;99.90;;;;;;5074661;28;20173;-68
2021/04/13 06:22:50;;;;;;;8.73;5.72;;;3.70;99.90;;;;;;5074711;28;20539;-67
2021/04/13 06:25:19;;;;;;;8.50;5.70;;;3.80;99.90;;;;;;5074781;28;20686;-67
2021/04/13 06:27:47;;;;;;;14.38;5.50;;;3.80;99.90;;;;;;5074730;28;20219;-65
2021/04/13 06:30:16;;;;;;;8.57;5.47;;;3.90;99.90;;;;;;5074626;28;20204;-66
2021/04/13 06:32:44;;;;;;;12.70;5.55;;;4.00;99.90;;;;;;5074479;28;20172;-67
2021/04/13 06:35:12;;;;;;;8.40;5.43;;;4.00;99.90;;;;;;5074672;28;20224;-66
2021/04/13 06:37:42;;;;;;;7.05;5.95;;;3.90;99.90;;;;;;5074422;28;20208;-66
2021/04/13 06:40:20;;;;;;;7.55;5.82;;;3.90;99.90;;;;;;5073081;28;20192;-66
2021/04/13 06:42:56;;;;;;;4.35;3.80;;;3.90;99.90;;;;;;5074563;28;20725;-66
2021/04/13 06:45:32;;;;;;;7.25;4.72;;;4.00;99.90;;;;;;5073566;28;20208;-67
2021/04/13 06:48:24;;;;;;;10.05;4.50;;;3.90;99.90;;;;;;5073153;28;20219;-66
2021/04/13 06:50:59;;;;;;;7.20;5.47;;;3.90;99.90;;;;;;5074528;28;20169;-65
2021/04/13 06:53:51;;;;;;;6.13;4.68;;;3.90;99.90;;;;;;5074291;28;20225;-66
2021/04/13 06:56:34;;;;;;;7.05;4.88;;;3.80;99.90;;;;;;5074003;28;20180;-67
2021/04/13 06:59:16;;;;;;;8.27;6.07;;;3.80;99.90;;;;;;5053953;28;20203;-66
2021/04/13 07:01:48;;;;;;;9.82;6.78;;;3.90;99.90;;;;;;5053677;28;20657;-64
2021/04/13 07:04:22;;;;;;;6.20;5.60;;;4.10;99.90;;;;;;5035967;28;20197;-65
2021/04/13 07:06:57;;;;;;;7.10;4.10;;;4.30;99.90;;;;;;5054006;28;20267;-66
2021/04/13 07:09:31;;;;;;;6.68;5.00;;;4.50;99.90;;;;;;5053812;28;20216;-66
2021/04/13 07:12:04;;;;;;;10.48;5.00;;;4.60;99.90;;;;;;5053668;28;20204;-67
2021/04/13 07:14:37;;;;;;;8.18;5.03;;;4.80;99.90;;;;;;5054063;28;20260;-65
2021/04/13 07:17:12;;;;;;;5.97;4.13;;;5.10;99.90;;;;;;5054328;28;20240;-66
2021/04/13 07:19:44;;;;;;;6.00;4.25;;;5.10;99.90;;;;;;5053810;28;20223;-65
2021/04/13 07:22:22;;;;;;;8.48;4.40;;;5.10;99.90;;;;;;5053852;28;20173;-67
2021/04/13 07:24:53;;;;;;;7.07;5.13;;;5.30;99.90;;;;;;5053828;28;20180;-67
2021/04/13 07:27:25;;;;;;;7.82;5.20;;;5.30;99.90;;;;;;5053475;28;20696;-66
2021/04/13 07:29:59;;;;;;;8.70;4.05;;;5.50;99.90;;;;;;5053404;28;20306;-67
2021/04/13 07:32:26;;;;;;;6.97;5.30;;;5.70;99.90;;;;;;5053742;28;20271;-65
2021/04/13 07:34:57;;;;;;;6.53;4.75;;;5.70;99.90;;;;;;5053755;28;20193;-65
2021/04/13 07:37:33;;;;;;;5.10;3.92;;;5.70;99.90;;;;;;5053309;28;20584;-67
2021/04/13 07:40:10;;;;;;;6.13;4.25;;;5.60;99.90;;;;;;5053611;28;20545;-69
2021/04/13 07:42:41;;;;;;;4.50;3.95;;;5.70;99.90;;;;;;5053250;28;20266;-66
2021/04/13 07:45:22;;;;;;;5.05;4.00;;;6.00;99.90;;;;;;5053368;28;20199;-66
2021/04/13 07:48:22;;;;;;;5.78;3.90;;;6.20;99.90;;;;;;5055440;28;20681;-70
2021/04/13 07:51:03;;;;;;;3.97;3.13;;;6.30;99.90;;;;;;5043844;28;20201;-67
2021/04/13 07:53:44;;;;;;;7.90;4.47;;;6.20;99.90;;;;;;5053015;28;20517;-67
2021/04/13 07:56:22;;;;;;;5.10;3.88;;;6.60;99.90;;;;;;5053220;28;20173;-66
2021/04/13 07:58:57;;;;;;;9.57;4.65;;;6.50;99.90;;;;;;5052923;28;20723;-67
2021/04/13 08:01:25;;;;;;;6.30;3.83;;;6.60;99.90;;;;;;5052960;28;20192;-66
2021/04/13 08:03:52;;;;;;;5.10;2.85;;;6.30;99.90;;;;;;5053221;28;20237;-66
2021/04/13 08:06:41;;;;;;;3.85;3.33;;;6.10;99.90;;;;;;5053178;28;20698;-67
2021/04/13 08:09:29;;;;;;;3.40;3.15;;;5.90;99.90;;;;;;5053155;28;20193;-67
2021/04/13 08:12:16;;;;;;;17.02;5.25;;;6.30;99.90;;;;;;5052940;28;20630;-66
2021/04/13 08:14:46;;;;;;;4.78;3.05;;;6.70;99.90;;;;;;5052808;28;20645;-67
2021/04/13 08:17:16;;;;;;;4.80;3.67;;;6.90;99.90;;;;;;5052847;28;20205;-67
2021/04/13 08:19:45;;;;;;;3.92;3.53;;;7.20;99.90;;;;;;5052520;28;20165;-65
2021/04/13 08:22:18;;;;;;;6.85;3.33;;;6.90;99.90;;;;;;5035107;28;20275;-65
2021/04/13 08:24:49;;;;;;;4.82;3.05;;;7.00;99.90;;;;;;5052867;28;20188;-67
2021/04/13 08:27:38;;;;;;;4.20;3.90;;;7.10;99.90;;;;;;5034914;28;20208;-65
2021/04/13 08:30:33;;;;;;;4.63;4.20;;;7.30;99.90;;;;;;5053249;28;20204;-66
2021/04/13 08:33:07;;;;;;;5.50;3.30;;;7.50;99.90;;;;;;5053670;28;20230;-66
2021/04/13 08:35:39;;;;;;;4.38;3.42;;;7.00;99.90;;;;;;5053557;28;20181;-66
2021/04/13 08:38:29;;;;;;;3.28;2.80;;;6.60;99.90;;;;;;5053360;28;20217;-67
2021/04/13 08:41:13;;;;;;;9.43;3.50;;;6.80;99.90;;;;;;5052463;28;20208;-69
2021/04/13 08:43:51;;;;;;;9.65;2.28;;;7.10;99.90;;;;;;5034429;28;20251;-69
2021/04/13 08:46:27;;;;;;;8.40;3.00;;;7.30;99.90;;;;;;5053082;28;20181;-66
2021/04/13 08:49:05;;;;;;;4.15;2.80;;;6.70;99.90;;;;;;5052170;28;20287;-66
2021/04/13 08:51:37;;;;;;;3.25;2.20;;;6.50;99.90;;;;;;5051989;28;20183;-68
2021/04/13 08:54:15;;;;;;;5.10;3.50;;;6.50;99.90;;;;;;5052112;28;20642;-69
2021/04/13 08:56:56;;;;;;;2.83;2.40;;;6.80;99.90;;;;;;5051977;28;20183;-65
2021/04/13 08:59:39;;;;;;;3.95;2.55;;;7.20;99.90;;;;;;5060823;28;20191;-64
2021/04/13 09:02:13;;;;;;;2.65;2.35;;;7.30;99.90;;;;;;5062137;28;20181;-65
2021/04/13 09:04:40;;;;;;;4.15;2.58;;;7.40;99.90;;;;;;5071184;28;20271;-65
2021/04/13 09:07:14;;;;;;;4.60;3.05;;;7.60;99.90;;;;;;5071032;28;20208;-65
2021/04/13 09:09:45;;;;;;;3.05;2.72;;;7.40;99.90;;;;;;5075633;28;20278;-66
2021/04/13 09:12:30;;;;;;;4.30;2.35;;;7.20;99.90;;;;;;5075744;28;20196;-65
2021/04/13 09:15:13;;;;;;;4.00;2.25;;;6.90;99.90;;;;;;5075407;28;20221;-67
2021/04/13 09:17:45;;;;;;;3.47;1.80;;;7.10;99.90;;;;;;5075416;28;20298;-66
2021/04/13 09:20:25;;;;;;;3.63;2.83;;;7.30;99.90;;;;;;5075527;28;20165;-67
2021/04/13 09:22:58;;;;;;;5.03;1.65;;;7.40;99.90;;;;;;5075644;28;20192;-65
2021/04/13 09:25:33;;;;;;;3.55;1.80;;;7.50;99.90;;;;;;5075829;28;20570;-66
2021/04/13 09:28:09;;;;;;;3.92;3.25;;;7.50;99.90;;;;;;5075577;28;20261;-65
2021/04/13 09:30:38;;;;;;;2.50;1.92;;;7.50;99.90;;;;;;5075664;28;20204;-67
2021/04/13 09:33:27;;;;;;;2.30;1.95;;;7.60;99.90;;;;;;5075173;28;20187;-66
2021/04/13 09:36:08;;;;;;;3.25;2.95;;;7.30;99.90;;;;;;5075041;28;20183;-68
2021/04/13 09:38:58;;;;;;;3.25;1.83;;;7.00;99.90;;;;;;5074988;28;20211;-66
2021/04/13 09:41:42;;;;;;;2.97;1.70;;;6.80;99.90;;;;;;5074827;28;20176;-66
2021/04/13 09:44:39;;;;;;;3.22;1.55;;;6.80;99.90;;;;;;5075382;28;20684;-65
2021/04/13 09:47:10;;;;;;;1.83;1.30;;;7.10;99.90;;;;;;5074681;28;20234;-66
2021/04/13 09:49:50;;;;;;;7.85;2.38;;;7.30;99.90;;;;;;5080903;28;20261;-65
2021/04/13 09:52:38;;;;;;;1.85;1.70;;;7.70;99.90;;;;;;5076714;28;20195;-64
2021/04/13 09:55:17;;;;;;;2.85;1.65;;;7.90;99.90;;;;;;5079586;28;20192;-65
2021/04/13 09:58:24;;;;;;;5.80;1.90;;;8.10;99.90;;;;;;5076895;28;20215;-66
2021/04/13 10:01:01;;;;;;;8.07;2.05;;;8.10;99.90;;;;;;5054867;28;20231;-65
2021/04/13 10:03:56;;;;;;;4.80;2.53;;;8.10;99.90;;;;;;5054891;28;20177;-65
2021/04/13 10:06:29;;;;;;;5.68;2.80;;;8.00;99.90;;;;;;5061055;28;20175;-65
2021/04/13 10:09:04;;;;;;;2.95;2.10;;;8.20;99.90;;;;;;5085252;28;20230;-66
2021/04/13 10:12:25;;;;;;;5.18;1.92;;;8.40;99.90;;;;;;5094096;28;20434;-65
2021/04/13 10:15:28;;;;;;;3.25;2.38;;;8.40;99.90;;;;;;5074783;28;20207;-65
2021/04/13 10:18:22;;;;;;;2.50;2.00;;;8.10;99.90;;;;;;5053819;28;20215;-65
2021/04/13 10:21:03;;;;;;;6.60;2.08;;;7.90;99.90;;;;;;5054070;28;20185;-69
2021/04/13 10:23:41;;;;;;;3.50;2.22;;;7.60;99.90;;;;;;5055006;28;20179;-66
2021/04/13 10:26:41;;;;;;;2.17;1.80;;;7.60;99.90;;;;;;5037373;28;20243;-67
2021/04/13 10:29:59;;;;;;;3.20;2.67;;;7.60;99.90;;;;;;5055636;28;20209;-69
2021/04/13 10:32:48;;;;;;;3.85;1.75;;;7.30;99.90;;;;;;5056541;28;20646;-67
2021/04/13 10:35:42;;;;;;;2.80;1.60;;;7.30;99.90;;;;;;5055126;28;20517;-67
2021/04/13 10:38:39;;;;;;;2.28;2.00;;;7.50;99.90;;;;;;5054574;28;20246;-65
2021/04/13 10:42:04;;;;;;;5.50;1.85;;;7.70;99.90;;;;;;5056329;28;20291;-67
2021/04/13 10:44:50;;;;;;;1.88;1.48;;;7.60;99.90;;;;;;5053537;28;20537;-68
2021/04/13 10:47:59;;;;;;;2.03;1.25;;;7.40;99.90;;;;;;5036557;28;20222;-69
2021/04/13 10:50:43;;;;;;;1.35;1.10;;;7.20;99.90;;;;;;5054823;28;20204;-67
2021/04/13 10:53:38;;;;;;;4.38;1.50;;;7.20;99.90;;;;;;5054557;28;20211;-66
2021/04/13 10:56:24;;;;;;;5.32;1.60;;;7.30;99.90;;;;;;5054168;28;20239;-67
2021/04/13 10:59:27;;;;;;;2.08;1.95;;;7.90;99.90;;;;;;5053722;28;20188;-67
2021/04/13 11:02:26;;;;;;;5.50;1.60;;;8.70;99.90;;;;;;5046028;28;20204;-66
2021/04/13 11:05:32;;;;;;;2.80;1.83;;;9.20;99.90;;;;;;5054033;28;20248;-64
2021/04/13 11:08:33;;;;;;;5.13;1.60;;;8.50;99.90;;;;;;5054484;28;20693;-67
2021/04/13 11:11:46;;;;;;;3.40;1.42;;;8.20;99.90;;;;;;5053918;28;20197;-65
2021/04/13 11:14:37;;;;;;;1.60;1.25;;;7.80;99.90;;;;;;5054094;28;20232;-67
2021/04/13 11:17:53;;;;;;;3.72;1.55;;;7.90;99.90;;;;;;5054198;28;20217;-67
2021/04/13 11:20:30;;;;;;;3.35;1.40;;;8.00;99.90;;;;;;5054084;28;20199;-66
2021/04/13 11:23:30;;;;;;;1.58;1.10;;;8.20;99.90;;;;;;5053874;28;20187;-66
2021/04/13 11:26:48;;;;;;;3.75;1.35;;;8.30;99.90;;;;;;5054132;28;20201;-67
2021/04/13 11:29:46;;;;;;;3.05;1.20;;;8.70;99.90;;;;;;4972384;28;20266;-68
2021/04/13 11:32:57;;;;;;;3.47;1.50;;;8.70;99.90;;;;;;4973315;28;20182;-65
2021/04/13 11:35:32;;;;;;;3.40;1.45;;;8.70;99.90;;;;;;5051029;28;20205;-65
2021/04/13 11:38:15;;;;;;;2.50;1.08;;;8.50;99.90;;;;;;5054229;28;20579;-65
2021/04/13 11:41:22;;;;;;;1.50;1.30;;;8.40;99.90;;;;;;5054073;28;20248;-67
2021/04/13 11:43:53;;;;;;;2.30;1.00;;;8.50;99.90;;;;;;5053595;28;20205;-66
2021/04/13 11:46:26;;;;;;;2.13;1.42;;;8.60;99.90;;;;;;5054842;28;20218;-67
2021/04/13 11:49:01;;;;;;;5.40;1.45;;;8.50;99.90;;;;;;5056868;28;20194;-66
2021/04/13 11:51:37;;;;;;;1.50;1.00;;;8.50;99.90;;;;;;5056098;28;20208;-66
2021/04/13 11:54:49;;;;;;;2.55;1.23;;;8.30;99.90;;;;;;5036278;28;20180;-65
2021/04/13 11:57:21;;;;;;;2.85;0.88;;;8.50;99.90;;;;;;5033860;28;20224;-68
2021/04/13 12:00:26;;;;;;;7.30;1.35;;;8.60;99.90;;;;;;5052994;28;20185;-67
2021/04/13 12:03:32;;;;;;;4.60;1.10;;;9.10;99.90;;;;;;5052184;28;20250;-64
2021/04/13 12:06:03;;;;;;;2.90;2.30;;;9.60;99.90;;;;;;5052545;28;20231;-65
2021/04/13 12:08:52;;;;;;;1.80;1.25;;;10.30;99.90;;;;;;5051659;28;20204;-65
2021/04/13 12:11:48;;;;;;;1.00;0.82;;;10.20;99.90;;;;;;5051672;28;20243;-65
2021/04/13 12:14:40;;;;;;;6.38;1.50;;;10.10;99.90;;;;;;5051864;28;20231;-65
2021/04/13 12:17:24;;;;;;;3.00;1.75;;;8.90;99.90;;;;;;5077337;22;20232;-65
2021/04/13 12:20:17;;;;;;;1.10;0.95;;;8.40;99.90;;;;;;5071117;28;20351;-66
2021/04/13 12:22:45;;;;;;;2.33;1.65;;;8.40;99.90;;;;;;5071799;28;20172;-67
2021/04/13 12:25:36;;;;;;;6.68;1.65;;;8.80;99.90;;;;;;5072235;28;20177;-67
2021/04/13 12:28:07;;;;;;;2.92;0.95;;;9.10;99.90;;;;;;5054090;28;20246;-68
2021/04/13 12:30:56;;;;;;;1.50;1.40;;;9.00;99.90;;;;;;5072223;28;20204;-67
2021/04/13 12:33:53;;;;;;;3.58;1.30;;;9.10;99.90;;;;;;5072149;28;20176;-68
2021/04/13 12:36:41;;;;;;;7.22;2.03;;;9.00;99.90;;;;;;5072008;28;20188;-67
2021/04/13 12:39:10;;;;;;;2.50;1.58;;;8.80;99.90;;;;;;5071209;28;20211;-66
2021/04/13 12:41:55;;;;;;;1.83;1.15;;;9.00;99.90;;;;;;5071392;28;20180;-67
2021/04/13 12:44:26;;;;;;;1.65;1.05;;;9.00;99.90;;;;;;5071679;28;20282;-68
2021/04/13 12:46:56;;;;;;;6.00;1.63;;;9.10;99.90;;;;;;5071913;28;20207;-67
2021/04/13 12:49:28;;;;;;;2.70;1.45;;;9.10;99.90;;;;;;5071664;28;20685;-67
2021/04/13 12:52:01;;;;;;;2.75;1.20;;;9.20;99.90;;;;;;5071658;28;20671;-67
2021/04/13 12:54:32;;;;;;;3.08;1.13;;;9.10;99.90;;;;;;5072272;28;20741;-66
2021/04/13 12:57:06;;;;;;;6.82;1.15;;;9.00;99.90;;;;;;5071250;28;20307;-65
2021/04/13 12:59:34;;;;;;;2.88;1.00;;;9.10;99.90;;;;;;5071518;28;20188;-67
2021/04/13 13:02:04;;;;;;;2.00;1.15;;;9.00;99.90;;;;;;5075166;28;20220;-65
2021/04/13 13:04:37;;;;;;;2.75;1.45;;;8.80;99.90;;;;;;5056391;28;20184;-67
2021/04/13 13:07:06;;;;;;;1.25;0.90;;;8.70;99.90;;;;;;5056203;28;20219;-67
2021/04/13 13:09:38;;;;;;;2.28;0.60;;;8.70;99.90;;;;;;5075112;28;20206;-66
2021/04/13 13:12:09;;;;;;;3.15;1.10;;;8.70;99.90;;;;;;5073885;28;20216;-66
2021/04/13 13:14:41;;;;;;;3.08;1.30;;;8.40;99.90;;;;;;5073258;28;20242;-65
2021/04/13 13:17:10;;;;;;;3.35;1.48;;;8.20;99.90;;;;;;5079177;28;20224;-67
2021/04/13 13:19:45;;;;;;;3.63;1.13;;;8.20;99.90;;;;;;5057671;28;20188;-68
2021/04/13 13:22:15;;;;;;;3.03;1.10;;;8.50;99.90;;;;;;5063521;28;20191;-68
2021/04/13 13:24:45;;;;;;;3.88;2.28;;;8.60;99.90;;;;;;5075034;28;20188;-67
2021/04/13 13:27:20;;;;;;;1.63;1.17;;;8.70;99.90;;;;;;5051198;28;20219;-68
2021/04/13 13:29:48;;;;;;;1.13;1.00;;;8.80;99.90;;;;;;5051331;28;20208;-68
2021/04/13 13:32:17;;;;;;;5.53;0.98;;;9.00;99.90;;;;;;5051028;28;20193;-68
2021/04/13 13:34:47;;;;;;;2.58;1.13;;;9.20;99.90;;;;;;5050772;28;20181;-67
2021/04/13 13:37:15;;;;;;;3.60;1.15;;;9.40;99.90;;;;;;5033174;28;20591;-66
2021/04/13 13:39:43;;;;;;;1.58;1.45;;;9.50;99.90;;;;;;5051496;28;20189;-68
2021/04/13 13:42:15;;;;;;;1.80;1.05;;;9.80;99.90;;;;;;5051234;28;20272;-68
2021/04/13 13:44:46;;;;;;;6.50;1.00;;;10.30;99.90;;;;;;5051200;28;20185;-68
2021/04/13 13:47:25;;;;;;;1.65;1.25;;;10.70;99.90;;;;;;5050999;28;20577;-67